sensor_id;sensor_type;location;lat;lon;timestamp;P1;durP1;ratioP1;P2;durP2;ratioP2
46643;SDS011;32371;51.032;5.816;2023-07-20T00:01:24;1.67;;;1.25;;
46643;SDS011;32371;51.032;5.816;2023-07-20T00:03:49;2.88;;;1.02;;
46643;SDS011;32371;51.032;5.816;2023-07-20T00:06:26;3.55;;;1.23;;
46643;SDS011;32371;51.032;5.816;2023-07-20T00:11:18;1.65;;;1.08;;
46643;SDS011;32371;51.032;5.816;2023-07-20T00:13:44;1.98;;;1.10;;
46643;SDS011;32371;51.032;5.816;2023-07-20T00:16:09;2.58;;;1.75;;
46643;SDS011;32371;51.032;5.816;2023-07-20T00:18:35;5.50;;;1.50;;
46643;SDS011;32371;51.032;5.816;2023-07-20T00:21:00;1.70;;;0.98;;
46643;SDS011;32371;51.032;5.816;2023-07-20T00:23:26;2.45;;;1.58;;
46643;SDS011;32371;51.032;5.816;2023-07-20T00:25:52;1.40;;;1.30;;
46643;SDS011;32371;51.032;5.816;2023-07-20T00:28:17;1.83;;;1.00;;
46643;SDS011;32371;51.032;5.816;2023-07-20T00:30:42;3.97;;;1.70;;
46643;SDS011;32371;51.032;5.816;2023-07-20T00:33:11;2.22;;;1.52;;
46643;SDS011;32371;51.032;5.816;2023-07-20T00:35:37;2.80;;;1.80;;
46643;SDS011;32371;51.032;5.816;2023-07-20T00:38:03;4.35;;;1.50;;
46643;SDS011;32371;51.032;5.816;2023-07-20T00:40:35;1.48;;;1.15;;
46643;SDS011;32371;51.032;5.816;2023-07-20T00:43:01;3.88;;;1.73;;
46643;SDS011;32371;51.032;5.816;2023-07-20T00:45:26;2.75;;;1.10;;
46643;SDS011;32371;51.032;5.816;2023-07-20T00:47:52;5.10;;;1.77;;
46643;SDS011;32371;51.032;5.816;2023-07-20T00:50:17;6.13;;;2.50;;
46643;SDS011;32371;51.032;5.816;2023-07-20T00:52:43;2.28;;;1.48;;
46643;SDS011;32371;51.032;5.816;2023-07-20T00:55:08;3.17;;;1.60;;
46643;SDS011;32371;51.032;5.816;2023-07-20T00:57:34;6.97;;;1.70;;
46643;SDS011;32371;51.032;5.816;2023-07-20T01:00:01;3.25;;;1.80;;
46643;SDS011;32371;51.032;5.816;2023-07-20T01:02:28;2.53;;;1.77;;
46643;SDS011;32371;51.032;5.816;2023-07-20T01:04:53;4.65;;;1.92;;
46643;SDS011;32371;51.032;5.816;2023-07-20T01:10:01;3.55;;;1.38;;
46643;SDS011;32371;51.032;5.816;2023-07-20T01:12:41;4.78;;;1.58;;
46643;SDS011;32371;51.032;5.816;2023-07-20T01:15:07;2.55;;;1.80;;
46643;SDS011;32371;51.032;5.816;2023-07-20T01:17:33;5.68;;;1.95;;
46643;SDS011;32371;51.032;5.816;2023-07-20T01:19:59;3.28;;;1.77;;
46643;SDS011;32371;51.032;5.816;2023-07-20T01:25:18;5.28;;;2.40;;
46643;SDS011;32371;51.032;5.816;2023-07-20T01:33:04;3.60;;;1.50;;
46643;SDS011;32371;51.032;5.816;2023-07-20T01:35:31;3.63;;;1.80;;
46643;SDS011;32371;51.032;5.816;2023-07-20T01:37:57;5.07;;;1.80;;
46643;SDS011;32371;51.032;5.816;2023-07-20T01:40:23;4.45;;;1.95;;
46643;SDS011;32371;51.032;5.816;2023-07-20T01:42:50;4.50;;;1.75;;
46643;SDS011;32371;51.032;5.816;2023-07-20T01:45:16;7.63;;;2.25;;
46643;SDS011;32371;51.032;5.816;2023-07-20T01:47:43;3.97;;;1.73;;
46643;SDS011;32371;51.032;5.816;2023-07-20T01:50:09;3.47;;;1.70;;
46643;SDS011;32371;51.032;5.816;2023-07-20T01:52:34;3.92;;;1.63;;
46643;SDS011;32371;51.032;5.816;2023-07-20T01:55:00;3.75;;;1.60;;
46643;SDS011;32371;51.032;5.816;2023-07-20T01:57:25;7.10;;;2.55;;
46643;SDS011;32371;51.032;5.816;2023-07-20T01:59:50;9.82;;;2.17;;
46643;SDS011;32371;51.032;5.816;2023-07-20T02:02:16;5.15;;;1.83;;
46643;SDS011;32371;51.032;5.816;2023-07-20T02:04:42;4.03;;;2.20;;
46643;SDS011;32371;51.032;5.816;2023-07-20T02:07:07;6.18;;;1.92;;
46643;SDS011;32371;51.032;5.816;2023-07-20T02:09:32;3.15;;;1.45;;
46643;SDS011;32371;51.032;5.816;2023-07-20T02:11:58;6.28;;;1.80;;
46643;SDS011;32371;51.032;5.816;2023-07-20T02:14:23;3.88;;;1.73;;
46643;SDS011;32371;51.032;5.816;2023-07-20T02:16:48;8.50;;;2.13;;
46643;SDS011;32371;51.032;5.816;2023-07-20T02:19:24;4.65;;;2.33;;
46643;SDS011;32371;51.032;5.816;2023-07-20T02:21:51;4.18;;;2.00;;
46643;SDS011;32371;51.032;5.816;2023-07-20T02:24:17;4.38;;;2.13;;
46643;SDS011;32371;51.032;5.816;2023-07-20T02:26:43;2.03;;;1.40;;
46643;SDS011;32371;51.032;5.816;2023-07-20T02:29:08;3.05;;;1.77;;
46643;SDS011;32371;51.032;5.816;2023-07-20T02:31:36;4.50;;;1.60;;
46643;SDS011;32371;51.032;5.816;2023-07-20T02:34:02;1.92;;;1.30;;
46643;SDS011;32371;51.032;5.816;2023-07-20T02:36:28;5.53;;;1.88;;
46643;SDS011;32371;51.032;5.816;2023-07-20T02:38:53;4.97;;;1.75;;
46643;SDS011;32371;51.032;5.816;2023-07-20T02:41:19;3.92;;;2.08;;
46643;SDS011;32371;51.032;5.816;2023-07-20T02:43:45;3.92;;;1.90;;
46643;SDS011;32371;51.032;5.816;2023-07-20T02:46:10;5.18;;;1.60;;
46643;SDS011;32371;51.032;5.816;2023-07-20T02:48:36;4.82;;;1.73;;
46643;SDS011;32371;51.032;5.816;2023-07-20T02:51:01;7.45;;;2.70;;
46643;SDS011;32371;51.032;5.816;2023-07-20T02:53:26;4.45;;;2.22;;
46643;SDS011;32371;51.032;5.816;2023-07-20T02:55:52;10.73;;;2.50;;
46643;SDS011;32371;51.032;5.816;2023-07-20T02:58:17;5.55;;;2.15;;
46643;SDS011;32371;51.032;5.816;2023-07-20T03:00:43;3.83;;;1.52;;
46643;SDS011;32371;51.032;5.816;2023-07-20T03:03:09;8.68;;;2.30;;
46643;SDS011;32371;51.032;5.816;2023-07-20T03:05:34;3.85;;;1.63;;
46643;SDS011;32371;51.032;5.816;2023-07-20T03:08:02;4.47;;;2.10;;
46643;SDS011;32371;51.032;5.816;2023-07-20T03:10:28;6.10;;;2.60;;
46643;SDS011;32371;51.032;5.816;2023-07-20T03:12:54;5.07;;;2.10;;
46643;SDS011;32371;51.032;5.816;2023-07-20T03:15:19;3.22;;;1.70;;
46643;SDS011;32371;51.032;5.816;2023-07-20T03:17:44;6.65;;;2.05;;
46643;SDS011;32371;51.032;5.816;2023-07-20T03:20:10;4.95;;;1.77;;
46643;SDS011;32371;51.032;5.816;2023-07-20T03:22:37;6.35;;;1.95;;
46643;SDS011;32371;51.032;5.816;2023-07-20T03:25:03;9.77;;;2.85;;
46643;SDS011;32371;51.032;5.816;2023-07-20T03:27:30;4.82;;;1.83;;
46643;SDS011;32371;51.032;5.816;2023-07-20T03:29:55;3.75;;;1.80;;
46643;SDS011;32371;51.032;5.816;2023-07-20T03:32:20;5.00;;;2.97;;
46643;SDS011;32371;51.032;5.816;2023-07-20T03:34:46;3.67;;;1.67;;
46643;SDS011;32371;51.032;5.816;2023-07-20T03:37:12;2.95;;;1.70;;
46643;SDS011;32371;51.032;5.816;2023-07-20T03:39:39;4.30;;;2.83;;
46643;SDS011;32371;51.032;5.816;2023-07-20T03:42:04;5.65;;;2.10;;
46643;SDS011;32371;51.032;5.816;2023-07-20T03:44:30;7.68;;;2.28;;
46643;SDS011;32371;51.032;5.816;2023-07-20T03:46:55;5.68;;;2.08;;
46643;SDS011;32371;51.032;5.816;2023-07-20T03:49:20;2.72;;;1.80;;
46643;SDS011;32371;51.032;5.816;2023-07-20T03:51:46;4.63;;;1.80;;
46643;SDS011;32371;51.032;5.816;2023-07-20T03:54:11;7.28;;;2.08;;
46643;SDS011;32371;51.032;5.816;2023-07-20T03:56:37;4.43;;;1.67;;
46643;SDS011;32371;51.032;5.816;2023-07-20T03:59:02;5.03;;;2.15;;
46643;SDS011;32371;51.032;5.816;2023-07-20T04:01:28;2.70;;;1.40;;
46643;SDS011;32371;51.032;5.816;2023-07-20T04:03:53;6.45;;;2.28;;
46643;SDS011;32371;51.032;5.816;2023-07-20T04:06:19;5.57;;;2.10;;
46643;SDS011;32371;51.032;5.816;2023-07-20T04:08:44;6.38;;;2.63;;
46643;SDS011;32371;51.032;5.816;2023-07-20T04:11:12;2.85;;;1.77;;
46643;SDS011;32371;51.032;5.816;2023-07-20T04:13:37;4.00;;;1.67;;
46643;SDS011;32371;51.032;5.816;2023-07-20T04:16:03;4.38;;;2.17;;
46643;SDS011;32371;51.032;5.816;2023-07-20T04:18:28;6.95;;;2.15;;
46643;SDS011;32371;51.032;5.816;2023-07-20T04:20:54;4.22;;;1.80;;
46643;SDS011;32371;51.032;5.816;2023-07-20T04:23:20;2.80;;;1.95;;
46643;SDS011;32371;51.032;5.816;2023-07-20T04:25:45;7.55;;;2.78;;
46643;SDS011;32371;51.032;5.816;2023-07-20T04:28:10;7.80;;;1.98;;
46643;SDS011;32371;51.032;5.816;2023-07-20T04:30:36;4.88;;;2.10;;
46643;SDS011;32371;51.032;5.816;2023-07-20T04:33:02;4.38;;;2.78;;
46643;SDS011;32371;51.032;5.816;2023-07-20T04:35:48;4.72;;;2.08;;
46643;SDS011;32371;51.032;5.816;2023-07-20T04:38:20;6.53;;;2.30;;
46643;SDS011;32371;51.032;5.816;2023-07-20T04:40:49;4.82;;;2.50;;
46643;SDS011;32371;51.032;5.816;2023-07-20T04:43:15;3.63;;;1.90;;
46643;SDS011;32371;51.032;5.816;2023-07-20T04:45:41;3.28;;;1.63;;
46643;SDS011;32371;51.032;5.816;2023-07-20T04:48:08;4.38;;;2.22;;
46643;SDS011;32371;51.032;5.816;2023-07-20T04:50:36;5.63;;;2.10;;
46643;SDS011;32371;51.032;5.816;2023-07-20T04:53:02;12.80;;;3.30;;
46643;SDS011;32371;51.032;5.816;2023-07-20T04:55:27;4.85;;;2.70;;
46643;SDS011;32371;51.032;5.816;2023-07-20T04:57:53;10.38;;;3.13;;
46643;SDS011;32371;51.032;5.816;2023-07-20T05:00:18;5.93;;;2.50;;
46643;SDS011;32371;51.032;5.816;2023-07-20T05:02:44;8.73;;;3.35;;
46643;SDS011;32371;51.032;5.816;2023-07-20T05:05:12;6.97;;;2.65;;
46643;SDS011;32371;51.032;5.816;2023-07-20T05:07:38;4.53;;;3.35;;
46643;SDS011;32371;51.032;5.816;2023-07-20T05:10:03;8.43;;;2.40;;
46643;SDS011;32371;51.032;5.816;2023-07-20T05:12:29;10.90;;;3.45;;
46643;SDS011;32371;51.032;5.816;2023-07-20T05:14:54;7.63;;;2.97;;
46643;SDS011;32371;51.032;5.816;2023-07-20T05:17:21;9.82;;;3.00;;
46643;SDS011;32371;51.032;5.816;2023-07-20T05:19:46;6.22;;;2.92;;
46643;SDS011;32371;51.032;5.816;2023-07-20T05:22:13;5.30;;;2.63;;
46643;SDS011;32371;51.032;5.816;2023-07-20T05:24:39;4.70;;;2.53;;
46643;SDS011;32371;51.032;5.816;2023-07-20T05:27:06;8.48;;;4.25;;
46643;SDS011;32371;51.032;5.816;2023-07-20T05:29:31;9.85;;;4.82;;
46643;SDS011;32371;51.032;5.816;2023-07-20T05:31:58;10.38;;;4.35;;
46643;SDS011;32371;51.032;5.816;2023-07-20T05:34:24;11.00;;;5.15;;
46643;SDS011;32371;51.032;5.816;2023-07-20T05:36:49;7.85;;;4.80;;
46643;SDS011;32371;51.032;5.816;2023-07-20T05:39:16;9.88;;;4.60;;
46643;SDS011;32371;51.032;5.816;2023-07-20T05:41:42;15.43;;;4.78;;
46643;SDS011;32371;51.032;5.816;2023-07-20T05:44:07;12.35;;;4.70;;
46643;SDS011;32371;51.032;5.816;2023-07-20T05:46:33;9.70;;;5.53;;
46643;SDS011;32371;51.032;5.816;2023-07-20T05:48:58;9.80;;;5.43;;
46643;SDS011;32371;51.032;5.816;2023-07-20T05:51:24;6.93;;;5.32;;
46643;SDS011;32371;51.032;5.816;2023-07-20T05:53:49;13.68;;;5.38;;
46643;SDS011;32371;51.032;5.816;2023-07-20T05:56:14;9.40;;;4.80;;
46643;SDS011;32371;51.032;5.816;2023-07-20T05:58:40;8.00;;;5.43;;
46643;SDS011;32371;51.032;5.816;2023-07-20T06:01:05;8.20;;;4.68;;
46643;SDS011;32371;51.032;5.816;2023-07-20T06:03:31;7.88;;;4.70;;
46643;SDS011;32371;51.032;5.816;2023-07-20T06:06:01;7.90;;;4.95;;
46643;SDS011;32371;51.032;5.816;2023-07-20T06:08:30;9.98;;;5.45;;
46643;SDS011;32371;51.032;5.816;2023-07-20T06:10:56;9.70;;;5.65;;
46643;SDS011;32371;51.032;5.816;2023-07-20T06:13:21;10.60;;;5.35;;
46643;SDS011;32371;51.032;5.816;2023-07-20T06:15:47;7.88;;;4.93;;
46643;SDS011;32371;51.032;5.816;2023-07-20T06:18:13;10.73;;;5.75;;
46643;SDS011;32371;51.032;5.816;2023-07-20T06:20:38;11.85;;;6.32;;
46643;SDS011;32371;51.032;5.816;2023-07-20T06:23:04;11.90;;;6.40;;
46643;SDS011;32371;51.032;5.816;2023-07-20T06:25:29;8.23;;;5.72;;
46643;SDS011;32371;51.032;5.816;2023-07-20T06:27:55;7.68;;;5.13;;
46643;SDS011;32371;51.032;5.816;2023-07-20T06:30:21;7.20;;;5.00;;
46643;SDS011;32371;51.032;5.816;2023-07-20T06:32:46;7.05;;;5.05;;
46643;SDS011;32371;51.032;5.816;2023-07-20T06:35:12;7.60;;;5.15;;
46643;SDS011;32371;51.032;5.816;2023-07-20T06:37:37;9.05;;;4.95;;
46643;SDS011;32371;51.032;5.816;2023-07-20T06:40:03;7.43;;;4.68;;
46643;SDS011;32371;51.032;5.816;2023-07-20T06:42:29;6.10;;;4.53;;
46643;SDS011;32371;51.032;5.816;2023-07-20T06:44:55;7.45;;;3.95;;
46643;SDS011;32371;51.032;5.816;2023-07-20T06:47:21;5.40;;;3.60;;
46643;SDS011;32371;51.032;5.816;2023-07-20T06:49:47;4.95;;;4.05;;
46643;SDS011;32371;51.032;5.816;2023-07-20T06:52:12;9.80;;;4.18;;
46643;SDS011;32371;51.032;5.816;2023-07-20T06:54:37;5.82;;;3.85;;
46643;SDS011;32371;51.032;5.816;2023-07-20T06:57:04;6.45;;;3.67;;
46643;SDS011;32371;51.032;5.816;2023-07-20T06:59:30;8.27;;;3.60;;
46643;SDS011;32371;51.032;5.816;2023-07-20T07:01:55;5.35;;;2.90;;
46643;SDS011;32371;51.032;5.816;2023-07-20T07:04:21;3.53;;;2.67;;
46643;SDS011;32371;51.032;5.816;2023-07-20T07:06:46;4.38;;;2.65;;
46643;SDS011;32371;51.032;5.816;2023-07-20T07:09:11;4.13;;;3.05;;
46643;SDS011;32371;51.032;5.816;2023-07-20T07:11:37;8.20;;;3.50;;
46643;SDS011;32371;51.032;5.816;2023-07-20T07:14:02;5.97;;;3.67;;
46643;SDS011;32371;51.032;5.816;2023-07-20T07:16:28;8.52;;;3.58;;
46643;SDS011;32371;51.032;5.816;2023-07-20T07:18:53;6.15;;;3.13;;
46643;SDS011;32371;51.032;5.816;2023-07-20T07:21:19;4.22;;;3.08;;
46643;SDS011;32371;51.032;5.816;2023-07-20T07:23:44;4.32;;;3.22;;
46643;SDS011;32371;51.032;5.816;2023-07-20T07:26:10;4.80;;;3.65;;
46643;SDS011;32371;51.032;5.816;2023-07-20T07:28:36;6.95;;;4.07;;
46643;SDS011;32371;51.032;5.816;2023-07-20T07:31:04;4.07;;;2.78;;
46643;SDS011;32371;51.032;5.816;2023-07-20T07:33:29;6.22;;;3.13;;
46643;SDS011;32371;51.032;5.816;2023-07-20T07:35:55;4.22;;;2.78;;
46643;SDS011;32371;51.032;5.816;2023-07-20T07:38:20;5.97;;;2.97;;
46643;SDS011;32371;51.032;5.816;2023-07-20T07:40:45;3.88;;;2.95;;
46643;SDS011;32371;51.032;5.816;2023-07-20T07:43:11;5.68;;;2.53;;
46643;SDS011;32371;51.032;5.816;2023-07-20T07:45:38;5.05;;;2.17;;
46643;SDS011;32371;51.032;5.816;2023-07-20T07:48:03;4.53;;;2.53;;
46643;SDS011;32371;51.032;5.816;2023-07-20T07:50:29;3.65;;;2.30;;
46643;SDS011;32371;51.032;5.816;2023-07-20T07:52:55;4.40;;;2.90;;
46643;SDS011;32371;51.032;5.816;2023-07-20T07:55:20;3.13;;;2.10;;
46643;SDS011;32371;51.032;5.816;2023-07-20T07:57:46;3.65;;;2.25;;
46643;SDS011;32371;51.032;5.816;2023-07-20T08:00:12;3.10;;;2.35;;
46643;SDS011;32371;51.032;5.816;2023-07-20T08:02:42;6.10;;;2.15;;
46643;SDS011;32371;51.032;5.816;2023-07-20T08:05:08;2.25;;;1.92;;
46643;SDS011;32371;51.032;5.816;2023-07-20T08:07:34;5.93;;;2.10;;
46643;SDS011;32371;51.032;5.816;2023-07-20T08:09:59;4.25;;;1.95;;
46643;SDS011;32371;51.032;5.816;2023-07-20T08:12:25;2.92;;;2.25;;
46643;SDS011;32371;51.032;5.816;2023-07-20T08:14:51;3.05;;;2.10;;
46643;SDS011;32371;51.032;5.816;2023-07-20T08:17:17;3.75;;;2.20;;
46643;SDS011;32371;51.032;5.816;2023-07-20T08:19:42;2.95;;;1.38;;
46643;SDS011;32371;51.032;5.816;2023-07-20T08:22:09;2.15;;;1.70;;
46643;SDS011;32371;51.032;5.816;2023-07-20T08:24:34;3.25;;;2.05;;
46643;SDS011;32371;51.032;5.816;2023-07-20T08:27:00;3.45;;;1.77;;
46643;SDS011;32371;51.032;5.816;2023-07-20T08:29:25;1.83;;;1.63;;
46643;SDS011;32371;51.032;5.816;2023-07-20T08:31:51;3.72;;;1.30;;
46643;SDS011;32371;51.032;5.816;2023-07-20T08:34:16;2.55;;;1.42;;
46643;SDS011;32371;51.032;5.816;2023-07-20T08:36:41;3.47;;;1.85;;
46643;SDS011;32371;51.032;5.816;2023-07-20T08:39:07;1.45;;;1.35;;
46643;SDS011;32371;51.032;5.816;2023-07-20T08:41:33;4.55;;;1.25;;
46643;SDS011;32371;51.032;5.816;2023-07-20T08:43:59;1.52;;;1.42;;
46643;SDS011;32371;51.032;5.816;2023-07-20T08:46:25;1.98;;;1.13;;
46643;SDS011;32371;51.032;5.816;2023-07-20T08:48:51;1.15;;;0.80;;
46643;SDS011;32371;51.032;5.816;2023-07-20T08:51:17;2.80;;;1.08;;
46643;SDS011;32371;51.032;5.816;2023-07-20T08:53:45;2.13;;;0.82;;
46643;SDS011;32371;51.032;5.816;2023-07-20T08:56:11;1.70;;;0.90;;
46643;SDS011;32371;51.032;5.816;2023-07-20T08:58:36;4.65;;;1.00;;
46643;SDS011;32371;51.032;5.816;2023-07-20T09:01:02;1.85;;;0.88;;
46643;SDS011;32371;51.032;5.816;2023-07-20T09:03:28;5.93;;;1.15;;
46643;SDS011;32371;51.032;5.816;2023-07-20T09:05:53;1.20;;;1.10;;
46643;SDS011;32371;51.032;5.816;2023-07-20T09:08:19;1.10;;;0.90;;
46643;SDS011;32371;51.032;5.816;2023-07-20T09:10:44;2.58;;;0.80;;
46643;SDS011;32371;51.032;5.816;2023-07-20T09:13:13;1.20;;;0.95;;
46643;SDS011;32371;51.032;5.816;2023-07-20T09:15:39;1.08;;;0.93;;
46643;SDS011;32371;51.032;5.816;2023-07-20T09:18:11;1.08;;;0.98;;
46643;SDS011;32371;51.032;5.816;2023-07-20T09:20:36;1.40;;;0.85;;
46643;SDS011;32371;51.032;5.816;2023-07-20T09:23:04;0.95;;;0.85;;
46643;SDS011;32371;51.032;5.816;2023-07-20T09:25:31;2.78;;;1.02;;
46643;SDS011;32371;51.032;5.816;2023-07-20T09:27:56;1.40;;;1.08;;
46643;SDS011;32371;51.032;5.816;2023-07-20T09:30:24;4.32;;;0.70;;
46643;SDS011;32371;51.032;5.816;2023-07-20T09:32:50;0.63;;;0.50;;
46643;SDS011;32371;51.032;5.816;2023-07-20T09:35:16;0.77;;;0.70;;
46643;SDS011;32371;51.032;5.816;2023-07-20T09:37:58;1.77;;;0.77;;
46643;SDS011;32371;51.032;5.816;2023-07-20T09:40:24;1.38;;;0.60;;
46643;SDS011;32371;51.032;5.816;2023-07-20T09:42:51;1.33;;;0.60;;
46643;SDS011;32371;51.032;5.816;2023-07-20T09:45:17;1.65;;;0.57;;
46643;SDS011;32371;51.032;5.816;2023-07-20T09:47:43;2.08;;;0.70;;
46643;SDS011;32371;51.032;5.816;2023-07-20T09:50:08;0.85;;;0.68;;
46643;SDS011;32371;51.032;5.816;2023-07-20T09:52:39;1.45;;;0.50;;
46643;SDS011;32371;51.032;5.816;2023-07-20T09:55:09;1.60;;;0.60;;
46643;SDS011;32371;51.032;5.816;2023-07-20T09:57:36;0.93;;;0.60;;
46643;SDS011;32371;51.032;5.816;2023-07-20T10:00:03;1.50;;;0.90;;
46643;SDS011;32371;51.032;5.816;2023-07-20T10:02:36;2.80;;;2.25;;
46643;SDS011;32371;51.032;5.816;2023-07-20T10:05:08;2.03;;;1.92;;
46643;SDS011;32371;51.032;5.816;2023-07-20T10:07:35;4.43;;;4.13;;
46643;SDS011;32371;51.032;5.816;2023-07-20T10:10:01;2.65;;;2.55;;
46643;SDS011;32371;51.032;5.816;2023-07-20T10:12:28;1.45;;;0.70;;
46643;SDS011;32371;51.032;5.816;2023-07-20T10:14:59;1.05;;;0.73;;
46643;SDS011;32371;51.032;5.816;2023-07-20T10:17:34;1.00;;;0.93;;
46643;SDS011;32371;51.032;5.816;2023-07-20T10:20:01;1.73;;;1.60;;
46643;SDS011;32371;51.032;5.816;2023-07-20T10:22:29;1.23;;;0.95;;
46643;SDS011;32371;51.032;5.816;2023-07-20T10:24:56;1.92;;;1.25;;
46643;SDS011;32371;51.032;5.816;2023-07-20T10:27:23;1.45;;;1.30;;
46643;SDS011;32371;51.032;5.816;2023-07-20T10:29:50;3.63;;;1.25;;
46643;SDS011;32371;51.032;5.816;2023-07-20T10:32:16;2.42;;;1.30;;
46643;SDS011;32371;51.032;5.816;2023-07-20T10:34:41;4.22;;;1.50;;
46643;SDS011;32371;51.032;5.816;2023-07-20T10:37:07;1.50;;;1.30;;
46643;SDS011;32371;51.032;5.816;2023-07-20T10:39:33;4.82;;;2.00;;
46643;SDS011;32371;51.032;5.816;2023-07-20T10:41:59;2.30;;;2.10;;
46643;SDS011;32371;51.032;5.816;2023-07-20T10:44:27;2.10;;;0.98;;
46643;SDS011;32371;51.032;5.816;2023-07-20T10:46:52;1.30;;;1.20;;
46643;SDS011;32371;51.032;5.816;2023-07-20T10:49:24;2.13;;;1.38;;
46643;SDS011;32371;51.032;5.816;2023-07-20T10:51:56;2.90;;;2.08;;
46643;SDS011;32371;51.032;5.816;2023-07-20T10:56:48;1.65;;;1.55;;
46643;SDS011;32371;51.032;5.816;2023-07-20T11:01:48;2.50;;;1.60;;
46643;SDS011;32371;51.032;5.816;2023-07-20T11:04:16;1.25;;;1.10;;
46643;SDS011;32371;51.032;5.816;2023-07-20T11:06:45;1.60;;;1.50;;
46643;SDS011;32371;51.032;5.816;2023-07-20T11:09:12;2.60;;;1.40;;
46643;SDS011;32371;51.032;5.816;2023-07-20T11:11:42;1.80;;;1.70;;
46643;SDS011;32371;51.032;5.816;2023-07-20T11:14:20;1.30;;;1.20;;
46643;SDS011;32371;51.032;5.816;2023-07-20T11:16:47;0.88;;;0.88;;
46643;SDS011;32371;51.032;5.816;2023-07-20T11:19:14;1.63;;;1.20;;
46643;SDS011;32371;51.032;5.816;2023-07-20T11:21:44;2.50;;;1.13;;
46643;SDS011;32371;51.032;5.816;2023-07-20T11:24:15;1.13;;;1.10;;
46643;SDS011;32371;51.032;5.816;2023-07-20T11:26:44;1.00;;;1.00;;
46643;SDS011;32371;51.032;5.816;2023-07-20T11:29:13;1.08;;;0.98;;
46643;SDS011;32371;51.032;5.816;2023-07-20T11:31:40;2.92;;;1.27;;
46643;SDS011;32371;51.032;5.816;2023-07-20T11:34:10;1.58;;;1.20;;
46643;SDS011;32371;51.032;5.816;2023-07-20T11:36:40;1.30;;;0.90;;
46643;SDS011;32371;51.032;5.816;2023-07-20T11:39:08;0.70;;;0.70;;
46643;SDS011;32371;51.032;5.816;2023-07-20T11:41:34;1.08;;;0.80;;
46643;SDS011;32371;51.032;5.816;2023-07-20T11:43:59;0.90;;;0.90;;
46643;SDS011;32371;51.032;5.816;2023-07-20T11:46:25;0.90;;;0.80;;
46643;SDS011;32371;51.032;5.816;2023-07-20T11:48:55;3.28;;;0.90;;
46643;SDS011;32371;51.032;5.816;2023-07-20T11:51:21;3.30;;;0.60;;
46643;SDS011;32371;51.032;5.816;2023-07-20T11:53:48;0.70;;;0.70;;
46643;SDS011;32371;51.032;5.816;2023-07-20T11:56:13;0.75;;;0.73;;
46643;SDS011;32371;51.032;5.816;2023-07-20T11:58:43;2.50;;;0.70;;
46643;SDS011;32371;51.032;5.816;2023-07-20T12:01:09;1.23;;;0.90;;
46643;SDS011;32371;51.032;5.816;2023-07-20T12:03:36;0.65;;;0.65;;
46643;SDS011;32371;51.032;5.816;2023-07-20T12:06:07;0.50;;;0.50;;
46643;SDS011;32371;51.032;5.816;2023-07-20T12:08:33;0.70;;;0.70;;
46643;SDS011;32371;51.032;5.816;2023-07-20T12:10:59;4.03;;;0.88;;
46643;SDS011;32371;51.032;5.816;2023-07-20T12:13:35;1.33;;;0.85;;
46643;SDS011;32371;51.032;5.816;2023-07-20T12:16:10;0.57;;;0.52;;
46643;SDS011;32371;51.032;5.816;2023-07-20T12:18:38;1.05;;;1.00;;
46643;SDS011;32371;51.032;5.816;2023-07-20T12:21:03;0.70;;;0.60;;
46643;SDS011;32371;51.032;5.816;2023-07-20T12:23:40;3.42;;;0.60;;
46643;SDS011;32371;51.032;5.816;2023-07-20T12:26:07;0.70;;;0.60;;
46643;SDS011;32371;51.032;5.816;2023-07-20T12:28:38;4.43;;;0.80;;
46643;SDS011;32371;51.032;5.816;2023-07-20T12:31:06;1.23;;;0.60;;
46643;SDS011;32371;51.032;5.816;2023-07-20T12:33:31;1.00;;;0.55;;
46643;SDS011;32371;51.032;5.816;2023-07-20T12:35:57;1.20;;;0.93;;
46643;SDS011;32371;51.032;5.816;2023-07-20T12:38:24;1.10;;;0.70;;
46643;SDS011;32371;51.032;5.816;2023-07-20T12:40:50;1.25;;;0.50;;
46643;SDS011;32371;51.032;5.816;2023-07-20T12:43:15;1.60;;;0.80;;
46643;SDS011;32371;51.032;5.816;2023-07-20T12:45:41;1.27;;;0.75;;
46643;SDS011;32371;51.032;5.816;2023-07-20T12:48:07;1.20;;;0.95;;
46643;SDS011;32371;51.032;5.816;2023-07-20T12:50:32;1.25;;;0.70;;
46643;SDS011;32371;51.032;5.816;2023-07-20T12:52:58;0.80;;;0.77;;
46643;SDS011;32371;51.032;5.816;2023-07-20T12:55:23;0.65;;;0.65;;
46643;SDS011;32371;51.032;5.816;2023-07-20T12:57:49;0.80;;;0.80;;
46643;SDS011;32371;51.032;5.816;2023-07-20T13:00:14;1.27;;;0.73;;
46643;SDS011;32371;51.032;5.816;2023-07-20T13:02:41;2.25;;;0.70;;
46643;SDS011;32371;51.032;5.816;2023-07-20T13:05:07;0.85;;;0.60;;
46643;SDS011;32371;51.032;5.816;2023-07-20T13:07:33;2.40;;;0.90;;
46643;SDS011;32371;51.032;5.816;2023-07-20T13:10:00;1.90;;;0.85;;
46643;SDS011;32371;51.032;5.816;2023-07-20T13:12:30;0.70;;;0.65;;
46643;SDS011;32371;51.032;5.816;2023-07-20T13:14:57;0.70;;;0.70;;
46643;SDS011;32371;51.032;5.816;2023-07-20T13:17:25;3.33;;;0.80;;
46643;SDS011;32371;51.032;5.816;2023-07-20T13:19:54;0.98;;;0.60;;
46643;SDS011;32371;51.032;5.816;2023-07-20T13:22:19;0.70;;;0.50;;
46643;SDS011;32371;51.032;5.816;2023-07-20T13:24:46;3.38;;;0.70;;
46643;SDS011;32371;51.032;5.816;2023-07-20T13:27:17;1.58;;;0.70;;
46643;SDS011;32371;51.032;5.816;2023-07-20T13:29:43;1.10;;;0.85;;
46643;SDS011;32371;51.032;5.816;2023-07-20T13:32:08;0.57;;;0.57;;
46643;SDS011;32371;51.032;5.816;2023-07-20T13:34:34;1.33;;;0.55;;
46643;SDS011;32371;51.032;5.816;2023-07-20T13:37:00;1.48;;;0.63;;
46643;SDS011;32371;51.032;5.816;2023-07-20T13:39:25;1.20;;;0.63;;
46643;SDS011;32371;51.032;5.816;2023-07-20T13:41:52;0.85;;;0.68;;
46643;SDS011;32371;51.032;5.816;2023-07-20T13:44:19;0.73;;;0.70;;
46643;SDS011;32371;51.032;5.816;2023-07-20T13:46:45;0.43;;;0.43;;
46643;SDS011;32371;51.032;5.816;2023-07-20T13:49:11;0.45;;;0.45;;
46643;SDS011;32371;51.032;5.816;2023-07-20T13:51:36;0.45;;;0.45;;
46643;SDS011;32371;51.032;5.816;2023-07-20T13:54:01;4.43;;;0.85;;
46643;SDS011;32371;51.032;5.816;2023-07-20T13:56:27;0.75;;;0.50;;
46643;SDS011;32371;51.032;5.816;2023-07-20T13:58:52;2.13;;;0.60;;
46643;SDS011;32371;51.032;5.816;2023-07-20T14:01:18;1.00;;;0.50;;
46643;SDS011;32371;51.032;5.816;2023-07-20T14:03:44;4.18;;;0.60;;
46643;SDS011;32371;51.032;5.816;2023-07-20T14:06:09;0.63;;;0.47;;
46643;SDS011;32371;51.032;5.816;2023-07-20T14:08:37;0.60;;;0.50;;
46643;SDS011;32371;51.032;5.816;2023-07-20T14:11:02;3.50;;;0.60;;
46643;SDS011;32371;51.032;5.816;2023-07-20T14:13:28;0.50;;;0.47;;
46643;SDS011;32371;51.032;5.816;2023-07-20T14:15:53;1.48;;;0.50;;
46643;SDS011;32371;51.032;5.816;2023-07-20T14:18:18;1.17;;;0.70;;
46643;SDS011;32371;51.032;5.816;2023-07-20T14:20:44;0.75;;;0.70;;
46643;SDS011;32371;51.032;5.816;2023-07-20T14:23:09;3.33;;;1.27;;
46643;SDS011;32371;51.032;5.816;2023-07-20T14:25:35;0.50;;;0.50;;
46643;SDS011;32371;51.032;5.816;2023-07-20T14:28:01;1.88;;;0.35;;
46643;SDS011;32371;51.032;5.816;2023-07-20T14:30:26;0.55;;;0.52;;
46643;SDS011;32371;51.032;5.816;2023-07-20T14:32:52;0.50;;;0.50;;
46643;SDS011;32371;51.032;5.816;2023-07-20T14:35:18;1.63;;;0.70;;
46643;SDS011;32371;51.032;5.816;2023-07-20T14:37:43;3.13;;;0.70;;
46643;SDS011;32371;51.032;5.816;2023-07-20T14:40:12;3.42;;;0.60;;
46643;SDS011;32371;51.032;5.816;2023-07-20T14:42:37;0.77;;;0.50;;
46643;SDS011;32371;51.032;5.816;2023-07-20T14:45:03;4.43;;;1.40;;
46643;SDS011;32371;51.032;5.816;2023-07-20T14:47:30;1.10;;;0.63;;
46643;SDS011;32371;51.032;5.816;2023-07-20T14:49:57;1.08;;;0.50;;
46643;SDS011;32371;51.032;5.816;2023-07-20T14:52:23;0.57;;;0.50;;
46643;SDS011;32371;51.032;5.816;2023-07-20T14:54:48;3.67;;;0.40;;
46643;SDS011;32371;51.032;5.816;2023-07-20T14:57:14;3.67;;;0.60;;
46643;SDS011;32371;51.032;5.816;2023-07-20T14:59:39;1.95;;;0.75;;
46643;SDS011;32371;51.032;5.816;2023-07-20T15:02:06;2.83;;;0.90;;